Minnesota Lake, Minnesota
Current Conditions -  °F | °C
As of 6:55 PM on Friday 19 Dec 2014 (Local Time) from KACQ Reporting Station
Haze Haze  
Wind Chill: 23°   Ceiling: 800
Heat Index: 30°   Visibility: 5mi
Dew Point: 28°   Wind: 8mph
Humidity: 93%   Direction: 150°SSE
Pressure: 30.18"   Gusts: NA
Location:  43.84°N, 93.83°W
Report Text: KACQ 200055Z AUTO 15007KT 5SM BR OVC008 M01/M02 A3018 RMK AO2
Loading
Personal Weather Stations






























Interactive Weather Map New forecast layout! Learn more

10-Day Weather Forecast

Advertisements
Track Severe Weather on mobile